Time;durP1;ratioP1;P1;durP2;ratioP2;P2;SDS_P1;SDS_P2;PMS_P1;PMS_P2;Temp;Humidity;BMP_temperature;BMP_pressure;BME280_temperature;BME280_humidity;BME280_pressure;Samples;Min_cycle;Max_cycle;Signal;HPM_P1;HPM_P2
2023/02/01 00:01:56;;;;;;;0.70;0.70;;;-1.20;99.90;;;;;;5093862;28;20191;-73
2023/02/01 00:04:22;;;;;;;0.60;0.60;;;-1.20;99.90;;;;;;5093463;28;20702;-73
2023/02/01 00:06:47;;;;;;;0.60;0.60;;;-1.20;99.90;;;;;;5093849;28;20249;-73
2023/02/01 00:09:13;;;;;;;0.60;0.60;;;-1.20;99.90;;;;;;5093987;28;20188;-72
2023/02/01 00:11:40;;;;;;;0.65;0.65;;;-1.20;99.90;;;;;;5075535;28;20200;-73
2023/02/01 00:14:06;;;;;;;0.70;0.70;;;-1.20;99.90;;;;;;5093854;28;20658;-73
2023/02/01 00:16:32;;;;;;;0.70;0.70;;;-1.20;99.90;;;;;;5093621;28;20255;-73
2023/02/01 00:19:04;;;;;;;0.60;0.60;;;-1.20;99.90;;;;;;5091119;28;20680;-72
2023/02/01 00:21:31;;;;;;;0.70;0.70;;;-1.20;99.90;;;;;;5075166;28;20200;-73
2023/02/01 00:23:56;;;;;;;0.70;0.70;;;-1.20;99.90;;;;;;5093746;28;20211;-72
2023/02/01 00:26:36;;;;;;;0.60;0.60;;;-1.20;99.90;;;;;;5093261;28;20196;-73
2023/02/01 00:29:04;;;;;;;0.80;0.80;;;-1.20;99.90;;;;;;5092379;28;20192;-73
2023/02/01 00:31:30;;;;;;;0.70;0.70;;;-1.20;99.90;;;;;;5093458;28;20232;-73
2023/02/01 00:33:56;;;;;;;0.60;0.60;;;-1.20;99.90;;;;;;5077257;28;20273;-72
2023/02/01 00:36:21;;;;;;;0.70;0.70;;;-1.10;99.90;;;;;;5093442;28;20676;-72
2023/02/01 00:38:47;;;;;;;0.50;0.50;;;-1.10;99.90;;;;;;5093276;28;20192;-70
2023/02/01 00:41:18;;;;;;;0.80;0.80;;;-1.00;99.90;;;;;;5093248;28;20215;-73
2023/02/01 00:43:44;;;;;;;0.60;0.60;;;-1.00;99.90;;;;;;5093220;28;20200;-72
2023/02/01 00:46:11;;;;;;;0.60;0.60;;;-1.00;99.90;;;;;;5075823;28;20205;-73
2023/02/01 00:48:38;;;;;;;0.70;0.70;;;-1.00;99.90;;;;;;5054758;28;20193;-73
2023/02/01 00:51:10;;;;;;;5.45;3.00;;;-1.00;99.90;;;;;;5055172;28;20193;-72
2023/02/01 00:53:37;;;;;;;0.57;0.57;;;-1.00;99.90;;;;;;5072663;28;20672;-73
2023/02/01 00:56:03;;;;;;;0.77;0.77;;;-1.00;99.90;;;;;;5087251;28;20539;-73
2023/02/01 00:58:29;;;;;;;0.70;0.70;;;-1.00;99.90;;;;;;5092895;28;20809;-73
2023/02/01 01:01:09;;;;;;;0.60;0.60;;;-1.00;99.90;;;;;;5092886;28;20220;-73
2023/02/01 01:03:37;;;;;;;0.80;0.80;;;-1.00;99.90;;;;;;5092600;28;20616;-73
2023/02/01 01:06:07;;;;;;;0.70;0.70;;;-1.00;99.90;;;;;;5092564;28;20236;-72
2023/02/01 01:08:33;;;;;;;0.57;0.57;;;-0.90;99.90;;;;;;5092476;28;20188;-72
2023/02/01 01:11:03;;;;;;;0.50;0.50;;;-0.90;99.90;;;;;;5093003;28;20196;-73
2023/02/01 01:13:29;;;;;;;1.17;0.85;;;-0.90;99.90;;;;;;5074680;28;20196;-72
2023/02/01 01:15:55;;;;;;;0.50;0.50;;;-0.90;99.90;;;;;;5092994;28;20268;-73
2023/02/01 01:18:20;;;;;;;0.77;0.77;;;-0.80;99.90;;;;;;5078020;28;20197;-73
2023/02/01 01:20:48;;;;;;;0.70;0.70;;;-0.80;99.90;;;;;;5054530;28;20201;-73
2023/02/01 01:23:14;;;;;;;0.60;0.60;;;-0.80;99.90;;;;;;5087737;28;20211;-73
2023/02/01 01:25:39;;;;;;;0.60;0.60;;;-0.80;99.90;;;;;;5092757;28;20196;-73
2023/02/01 01:28:06;;;;;;;0.65;0.65;;;-0.80;99.90;;;;;;5092583;28;20192;-75
2023/02/01 01:30:34;;;;;;;0.60;0.60;;;-0.90;99.90;;;;;;5093103;28;20267;-73
2023/02/01 01:33:00;;;;;;;0.60;0.60;;;-1.00;99.90;;;;;;5074571;28;20196;-73
2023/02/01 01:35:25;;;;;;;0.70;0.70;;;-1.00;99.90;;;;;;5092615;28;20512;-73
2023/02/01 01:37:51;;;;;;;1.17;1.08;;;-1.00;99.90;;;;;;5092816;28;20196;-73
2023/02/01 01:40:17;;;;;;;0.50;0.50;;;-1.10;99.90;;;;;;5074592;28;20624;-73
2023/02/01 01:42:44;;;;;;;0.60;0.60;;;-1.10;99.90;;;;;;5092600;28;20231;-73
2023/02/01 01:45:26;;;;;;;0.70;0.70;;;-1.10;99.90;;;;;;5074471;28;20202;-74
2023/02/01 01:48:01;;;;;;;0.70;0.70;;;-1.10;99.90;;;;;;5074836;28;20249;-74
2023/02/01 01:50:38;;;;;;;0.70;0.70;;;-1.20;99.90;;;;;;5092590;28;20192;-73
2023/02/01 01:53:06;;;;;;;0.60;0.60;;;-1.10;99.90;;;;;;5091339;28;20207;-73
2023/02/01 01:55:37;;;;;;;0.60;0.60;;;-1.00;99.90;;;;;;5092144;28;20200;-73
2023/02/01 01:58:10;;;;;;;0.60;0.60;;;-1.00;99.90;;;;;;5092810;28;20553;-73
2023/02/01 02:00:36;;;;;;;0.60;0.60;;;-1.00;99.90;;;;;;5074129;28;20200;-73
2023/02/01 02:03:19;;;;;;;0.57;0.57;;;-1.00;99.90;;;;;;5090084;28;20292;-73
2023/02/01 02:05:48;;;;;;;0.70;0.70;;;-1.00;99.90;;;;;;5092059;28;20231;-73
2023/02/01 02:08:13;;;;;;;0.70;0.70;;;-1.00;99.90;;;;;;5092454;28;20196;-73
2023/02/01 02:13:24;;;;;;;0.60;0.60;;;-0.90;99.90;;;;;;5092273;28;20211;-73
2023/02/01 02:16:08;;;;;;;0.60;0.60;;;-0.90;99.90;;;;;;5074107;28;20197;-72
2023/02/01 02:18:49;;;;;;;0.80;0.80;;;-0.80;99.90;;;;;;5078271;28;20188;-73
2023/02/01 02:21:36;;;;;;;0.60;0.60;;;-0.90;99.90;;;;;;5094770;28;20707;-73
2023/02/01 02:24:26;;;;;;;0.55;0.55;;;-0.90;99.90;;;;;;5096083;28;20299;-73
2023/02/01 02:27:22;;;;;;;0.52;0.52;;;-0.90;99.90;;;;;;5057592;28;20201;-72
2023/02/01 02:30:01;;;;;;;0.60;0.60;;;-1.00;99.90;;;;;;5075526;28;20710;-72
2023/02/01 02:33:09;;;;;;;0.70;0.70;;;-1.00;99.90;;;;;;5075391;28;20315;-73
2023/02/01 02:35:37;;;;;;;0.70;0.70;;;-1.00;99.90;;;;;;5057820;28;20196;-73
2023/02/01 02:38:22;;;;;;;0.60;0.60;;;-1.00;99.90;;;;;;5075411;28;20227;-73
2023/02/01 02:41:10;;;;;;;0.70;0.70;;;-1.00;99.90;;;;;;5075285;28;20711;-73
2023/02/01 02:54:44;;;;;;;0.50;0.50;;;-1.20;99.90;;;;;;5095236;28;20681;-73
2023/02/01 02:55:21;;;;;;;0.60;0.60;;;-1.30;99.90;;;;;;5095246;28;20615;-73
2023/02/01 03:06:03;;;;;;;0.50;0.50;;;-1.50;99.90;;;;;;5074640;28;20238;-73
2023/02/01 03:08:31;;;;;;;0.70;0.70;;;-1.50;99.90;;;;;;5074698;28;20189;-73
2023/02/01 03:11:09;;;;;;;0.60;0.60;;;-1.50;99.90;;;;;;5074831;28;20192;-72
2023/02/01 03:13:49;;;;;;;0.70;0.70;;;-1.50;99.90;;;;;;5074436;28;20659;-73
2023/02/01 03:16:26;;;;;;;0.60;0.60;;;-1.40;99.90;;;;;;5094218;28;20279;-72
2023/02/01 03:18:59;;;;;;;0.70;0.70;;;-1.50;99.90;;;;;;5094678;28;20187;-73
2023/02/01 03:21:29;;;;;;;0.65;0.65;;;-1.40;99.90;;;;;;5094495;28;20258;-73
2023/02/01 03:23:59;;;;;;;0.70;0.70;;;-1.40;99.90;;;;;;5094808;28;20214;-73
2023/02/01 03:26:27;;;;;;;0.57;0.57;;;-1.40;99.90;;;;;;5094574;28;20682;-72
2023/02/01 03:29:00;;;;;;;0.52;0.52;;;-1.40;99.90;;;;;;5094492;28;20211;-73
2023/02/01 03:31:28;;;;;;;0.60;0.60;;;-1.30;99.90;;;;;;5075100;28;20196;-73
2023/02/01 03:33:54;;;;;;;0.70;0.70;;;-1.30;99.90;;;;;;5094661;28;20215;-73
2023/02/01 03:36:49;;;;;;;0.60;0.60;;;-1.30;99.90;;;;;;5094586;28;20188;-73
2023/02/01 03:39:28;;;;;;;0.60;0.60;;;-1.30;99.90;;;;;;5091785;28;20261;-73
2023/02/01 03:41:59;;;;;;;0.65;0.65;;;-1.20;99.90;;;;;;5094406;28;20662;-73
2023/02/01 03:44:54;;;;;;;0.60;0.60;;;-1.20;99.90;;;;;;5094032;28;20570;-72
2023/02/01 03:47:23;;;;;;;0.50;0.50;;;-1.30;99.90;;;;;;5094383;28;20188;-73
2023/02/01 03:49:55;;;;;;;0.55;0.55;;;-1.30;99.90;;;;;;5094263;28;20550;-73
2023/02/01 03:52:25;;;;;;;0.70;0.70;;;-1.30;99.90;;;;;;5094119;28;20195;-74
2023/02/01 03:54:52;;;;;;;0.80;0.80;;;-1.30;99.90;;;;;;5094151;28;20184;-73
2023/02/01 03:57:25;;;;;;;0.63;0.63;;;-1.30;99.90;;;;;;5094154;28;20193;-73
2023/02/01 03:59:51;;;;;;;0.65;0.65;;;-1.30;99.90;;;;;;5075942;28;20669;-73
2023/02/01 04:02:16;;;;;;;0.60;0.60;;;-1.30;99.90;;;;;;5084259;28;20192;-72
2023/02/01 04:04:42;;;;;;;0.60;0.60;;;-1.30;99.90;;;;;;5093252;28;20311;-75
2023/02/01 04:07:08;;;;;;;0.60;0.60;;;-1.30;99.90;;;;;;5094204;28;20195;-77
2023/02/01 04:09:33;;;;;;;0.70;0.70;;;-1.30;99.90;;;;;;5093906;28;20637;-73
2023/02/01 04:11:59;;;;;;;0.68;0.68;;;-1.30;99.90;;;;;;5093768;28;20204;-77
2023/02/01 04:14:25;;;;;;;0.50;0.50;;;-1.30;99.90;;;;;;5093670;28;20220;-76
2023/02/01 04:16:50;;;;;;;0.60;0.60;;;-1.30;99.90;;;;;;5092115;28;20685;-73
2023/02/01 04:19:16;;;;;;;0.63;0.63;;;-1.30;99.90;;;;;;5093768;28;20192;-72
2023/02/01 04:21:42;;;;;;;0.60;0.60;;;-1.30;99.90;;;;;;5093532;28;20231;-74
2023/02/01 04:24:08;;;;;;;0.68;0.68;;;-1.30;99.90;;;;;;5093689;28;20212;-72
2023/02/01 04:26:34;;;;;;;0.77;0.77;;;-1.30;99.90;;;;;;5093365;28;20551;-71
2023/02/01 04:28:59;;;;;;;0.65;0.65;;;-1.30;99.90;;;;;;5075377;28;20198;-72
2023/02/01 04:31:25;;;;;;;0.70;0.70;;;-1.40;99.90;;;;;;5093306;28;20227;-72
2023/02/01 04:33:52;;;;;;;1.38;0.98;;;-1.50;99.90;;;;;;5093382;28;20703;-72
2023/02/01 04:36:22;;;;;;;0.60;0.60;;;-1.50;99.90;;;;;;5093416;28;20610;-73
2023/02/01 04:38:51;;;;;;;0.70;0.70;;;-1.50;99.90;;;;;;5093315;28;20626;-72
2023/02/01 04:41:18;;;;;;;0.70;0.70;;;-1.50;99.90;;;;;;5074538;28;20195;-72
2023/02/01 04:43:48;;;;;;;0.90;0.90;;;-1.50;99.90;;;;;;5093082;28;20212;-72
2023/02/01 04:46:14;;;;;;;0.60;0.60;;;-1.50;99.90;;;;;;5093249;28;20191;-72
2023/02/01 04:48:40;;;;;;;0.70;0.70;;;-1.60;99.90;;;;;;5092963;28;20759;-72
2023/02/01 04:51:05;;;;;;;0.60;0.60;;;-1.60;99.90;;;;;;5075158;28;20275;-72
2023/02/01 04:53:31;;;;;;;0.60;0.60;;;-1.50;99.90;;;;;;5092915;28;20192;-72
2023/02/01 04:55:57;;;;;;;0.50;0.50;;;-1.50;99.90;;;;;;5093293;28;20609;-73
2023/02/01 04:58:23;;;;;;;0.60;0.60;;;-1.50;99.90;;;;;;5092946;28;20286;-72
2023/02/01 05:00:49;;;;;;;0.70;0.70;;;-1.40;99.90;;;;;;5092938;28;20253;-71
2023/02/01 05:03:15;;;;;;;0.70;0.70;;;-1.40;99.90;;;;;;5092722;28;20603;-72
2023/02/01 05:05:41;;;;;;;0.50;0.50;;;-1.30;99.90;;;;;;5074515;28;20251;-72
2023/02/01 05:08:08;;;;;;;1.00;1.00;;;-1.30;99.90;;;;;;5092794;28;20215;-71
2023/02/01 05:10:33;;;;;;;0.60;0.60;;;-1.20;99.90;;;;;;5092717;28;20192;-71
2023/02/01 05:15:43;;;;;;;0.60;0.60;;;-1.20;99.90;;;;;;5072715;28;20203;-71
2023/02/01 05:18:09;;;;;;;0.73;0.73;;;-1.20;99.90;;;;;;5054529;28;20287;-72
2023/02/01 05:20:35;;;;;;;0.60;0.60;;;-1.20;99.90;;;;;;5072532;28;20246;-72
2023/02/01 05:23:00;;;;;;;0.63;0.63;;;-1.20;99.90;;;;;;5072455;28;20204;-71
2023/02/01 05:25:26;;;;;;;0.63;0.63;;;-1.10;99.90;;;;;;5072776;28;20193;-71
2023/02/01 05:27:53;;;;;;;0.57;0.57;;;-1.10;99.90;;;;;;5074649;28;20207;-72
2023/02/01 05:30:19;;;;;;;0.65;0.65;;;-1.10;99.90;;;;;;5092734;28;20192;-72
2023/02/01 05:32:44;;;;;;;0.73;0.73;;;-1.10;99.90;;;;;;5074515;28;20662;-72
2023/02/01 05:35:10;;;;;;;0.52;0.52;;;-1.10;99.90;;;;;;5092772;28;20192;-71
2023/02/01 05:37:36;;;;;;;0.50;0.50;;;-1.10;99.90;;;;;;5092440;28;20211;-71
2023/02/01 05:40:02;;;;;;;0.70;0.70;;;-1.10;99.90;;;;;;5074549;28;20349;-71
2023/02/01 05:42:27;;;;;;;0.70;0.70;;;-1.10;99.90;;;;;;5092327;28;20196;-72
2023/02/01 05:44:53;;;;;;;0.70;0.70;;;-1.10;99.90;;;;;;5092523;28;20203;-72
2023/02/01 05:47:20;;;;;;;0.60;0.60;;;-1.00;99.90;;;;;;5074281;28;20657;-72
2023/02/01 05:49:46;;;;;;;0.68;0.68;;;-1.10;99.90;;;;;;5092523;28;20257;-72
2023/02/01 05:52:12;;;;;;;0.70;0.70;;;-1.10;99.90;;;;;;5092497;28;20204;-71
2023/02/01 05:54:37;;;;;;;0.55;0.55;;;-1.00;99.90;;;;;;5074825;28;20212;-71
2023/02/01 05:57:03;;;;;;;0.60;0.60;;;-1.00;99.90;;;;;;5096470;28;20197;-73
2023/02/01 05:59:29;;;;;;;0.65;0.65;;;-1.00;99.90;;;;;;5078107;28;20287;-72
2023/02/01 06:01:55;;;;;;;0.80;0.80;;;-1.00;99.90;;;;;;5078208;28;20238;-72
2023/02/01 06:04:20;;;;;;;0.60;0.60;;;-1.00;99.90;;;;;;5096137;28;20310;-72
2023/02/01 06:06:46;;;;;;;0.70;0.70;;;-1.00;99.90;;;;;;5096205;28;20654;-73
2023/02/01 06:09:12;;;;;;;0.60;0.60;;;-1.00;99.90;;;;;;5096391;28;20270;-74
2023/02/01 06:11:40;;;;;;;0.70;0.70;;;-1.00;99.90;;;;;;5077971;28;20207;-72
2023/02/01 06:14:07;;;;;;;0.60;0.60;;;-0.90;99.90;;;;;;5096374;28;20236;-72
2023/02/01 06:16:33;;;;;;;0.60;0.60;;;-1.00;99.90;;;;;;5095990;28;20283;-73
2023/02/01 06:18:59;;;;;;;0.60;0.60;;;-1.00;99.90;;;;;;5095931;28;20224;-72
2023/02/01 06:21:25;;;;;;;0.60;0.60;;;-1.00;99.90;;;;;;5095955;28;20196;-72
2023/02/01 06:23:53;;;;;;;0.52;0.52;;;-1.00;99.90;;;;;;5096097;28;20207;-73
2023/02/01 06:26:19;;;;;;;0.70;0.70;;;-1.00;99.90;;;;;;5096149;28;20219;-72
2023/02/01 06:28:45;;;;;;;0.70;0.70;;;-1.00;99.90;;;;;;5077946;28;20655;-72
2023/02/01 06:31:11;;;;;;;0.60;0.60;;;-1.00;99.90;;;;;;5096015;28;20576;-73
2023/02/01 06:33:37;;;;;;;0.57;0.57;;;-1.10;99.90;;;;;;5095481;28;20708;-72
2023/02/01 06:36:06;;;;;;;0.60;0.60;;;-1.10;99.90;;;;;;5095643;28;20650;-73
2023/02/01 06:38:34;;;;;;;0.65;0.65;;;-1.10;99.90;;;;;;5096015;28;20211;-73
2023/02/01 06:41:00;;;;;;;0.70;0.70;;;-1.00;99.90;;;;;;5095748;28;20245;-73
2023/02/01 06:43:27;;;;;;;0.70;0.70;;;-1.00;99.90;;;;;;5095318;28;20577;-73
2023/02/01 06:45:53;;;;;;;0.70;0.70;;;-1.00;99.90;;;;;;5095634;28;20197;-72
2023/02/01 06:48:19;;;;;;;0.80;0.80;;;-1.00;99.90;;;;;;5077313;28;20196;-73
2023/02/01 06:50:45;;;;;;;0.70;0.70;;;-0.90;99.90;;;;;;5077164;28;20598;-73
2023/02/01 06:53:11;;;;;;;0.63;0.63;;;-0.90;99.90;;;;;;5095536;28;20563;-73
2023/02/01 06:55:36;;;;;;;0.52;0.52;;;-0.90;99.90;;;;;;5077151;28;20223;-73
2023/02/01 06:58:02;;;;;;;0.70;0.70;;;-0.90;99.90;;;;;;5095482;28;20200;-73
2023/02/01 07:00:28;;;;;;;0.60;0.60;;;-0.90;99.90;;;;;;5094774;28;20221;-73
2023/02/01 07:02:55;;;;;;;0.57;0.57;;;-0.90;99.90;;;;;;5094926;28;20693;-73
2023/02/01 07:05:21;;;;;;;0.70;0.70;;;-0.90;99.90;;;;;;5094627;28;20233;-73
2023/02/01 07:07:47;;;;;;;0.55;0.55;;;-0.90;99.90;;;;;;5095385;28;20705;-73
2023/02/01 07:10:13;;;;;;;0.70;0.70;;;-0.90;99.90;;;;;;5095411;28;20280;-73
2023/02/01 07:12:39;;;;;;;1.55;1.45;;;-1.00;99.90;;;;;;5076866;28;20310;-73
2023/02/01 07:15:05;;;;;;;4.50;2.58;;;-1.00;99.90;;;;;;5094736;28;20666;-73
2023/02/01 07:17:31;;;;;;;0.63;0.63;;;-1.10;99.90;;;;;;5073063;28;20231;-73
2023/02/01 07:19:59;;;;;;;1.23;1.13;;;-1.10;99.90;;;;;;5074898;28;20232;-73
2023/02/01 07:22:26;;;;;;;0.73;0.73;;;-1.00;99.90;;;;;;5094805;28;20219;-73
2023/02/01 07:24:51;;;;;;;0.50;0.50;;;-1.10;99.90;;;;;;5077041;28;20249;-73
2023/02/01 07:27:17;;;;;;;0.68;0.68;;;-1.10;99.90;;;;;;5093781;28;20196;-72
2023/02/01 07:29:43;;;;;;;0.70;0.70;;;-1.10;99.90;;;;;;5094422;28;20192;-73
2023/02/01 07:32:08;;;;;;;0.70;0.70;;;-1.10;99.90;;;;;;5095045;28;20192;-72
2023/02/01 07:34:34;;;;;;;1.63;1.52;;;-1.10;99.90;;;;;;5076385;28;20192;-74
2023/02/01 07:37:00;;;;;;;0.80;0.80;;;-1.10;99.90;;;;;;5094516;28;20211;-73
2023/02/01 07:39:28;;;;;;;0.80;0.80;;;-1.10;99.90;;;;;;5094845;28;20223;-73
2023/02/01 07:41:54;;;;;;;0.60;0.60;;;-1.10;99.90;;;;;;5094884;28;20547;-73
2023/02/01 07:44:22;;;;;;;0.68;0.68;;;-1.10;99.90;;;;;;5094387;28;20207;-73
2023/02/01 07:46:49;;;;;;;0.73;0.73;;;-1.00;99.90;;;;;;5094711;28;20181;-74
2023/02/01 07:49:14;;;;;;;0.70;0.70;;;-1.00;99.90;;;;;;5094460;28;20621;-73
2023/02/01 07:51:40;;;;;;;0.80;0.80;;;-1.00;99.90;;;;;;5094219;28;20279;-72
2023/02/01 07:54:06;;;;;;;0.70;0.70;;;-1.00;99.90;;;;;;5094422;28;20196;-70
2023/02/01 07:56:32;;;;;;;0.70;0.70;;;-1.00;99.90;;;;;;5093930;28;20192;-71
2023/02/01 07:58:59;;;;;;;0.70;0.70;;;-0.90;99.90;;;;;;5094147;28;20193;-72
2023/02/01 08:01:27;;;;;;;0.98;0.98;;;-0.90;99.90;;;;;;5093834;28;20248;-73
2023/02/01 08:04:03;;;;;;;0.70;0.70;;;-0.90;99.90;;;;;;5093901;28;20243;-71
2023/02/01 08:06:31;;;;;;;0.60;0.60;;;-0.80;99.90;;;;;;5093955;28;20223;-74
2023/02/01 08:08:57;;;;;;;0.70;0.70;;;-0.80;99.90;;;;;;5094572;28;20193;-72
2023/02/01 08:11:24;;;;;;;0.60;0.60;;;-0.70;99.90;;;;;;5094159;28;20693;-73
2023/02/01 08:13:50;;;;;;;0.50;0.50;;;-0.70;99.90;;;;;;5075682;28;20196;-72
2023/02/01 08:16:17;;;;;;;0.60;0.60;;;-0.70;99.90;;;;;;5093162;28;20726;-72
2023/02/01 08:18:44;;;;;;;1.67;1.58;;;-0.60;99.90;;;;;;5093599;28;20196;-74
2023/02/01 08:21:13;;;;;;;0.70;0.70;;;-0.60;99.90;;;;;;5075686;28;20196;-71
2023/02/01 08:23:40;;;;;;;0.88;0.88;;;-0.60;99.90;;;;;;5093377;28;20212;-73
2023/02/01 08:26:25;;;;;;;0.68;0.68;;;-0.60;99.90;;;;;;5075168;28;20279;-72
2023/02/01 08:28:57;;;;;;;0.60;0.60;;;-0.60;99.90;;;;;;5093600;28;20192;-72
2023/02/01 08:31:25;;;;;;;0.65;0.65;;;-0.60;99.90;;;;;;5093365;28;20258;-72
2023/02/01 08:33:56;;;;;;;0.60;0.60;;;-0.60;99.90;;;;;;5093518;28;20563;-72
2023/02/01 08:36:23;;;;;;;0.70;0.70;;;-0.60;99.90;;;;;;5093328;28;20199;-72
2023/02/01 08:38:49;;;;;;;0.63;0.63;;;-0.60;99.90;;;;;;5093610;28;20192;-72
2023/02/01 08:41:18;;;;;;;0.68;0.68;;;-0.60;99.90;;;;;;5093787;28;20711;-72
2023/02/01 08:43:45;;;;;;;0.70;0.70;;;-0.60;99.90;;;;;;5093318;28;20211;-72
2023/02/01 08:46:11;;;;;;;0.60;0.60;;;-0.60;99.90;;;;;;5093490;28;20183;-73
2023/02/01 08:48:38;;;;;;;0.60;0.60;;;-0.60;99.90;;;;;;5092998;28;20192;-70
2023/02/01 08:51:06;;;;;;;0.70;0.70;;;-0.60;99.90;;;;;;5093322;28;20196;-72
2023/02/01 08:53:32;;;;;;;0.50;0.50;;;-0.60;99.90;;;;;;5074732;28;20261;-72
2023/02/01 08:55:58;;;;;;;0.90;0.90;;;-0.50;99.90;;;;;;5093219;28;20659;-72
2023/02/01 08:58:24;;;;;;;0.60;0.60;;;-0.50;99.90;;;;;;5074730;28;20257;-72
2023/02/01 09:00:50;;;;;;;0.70;0.70;;;-0.50;99.90;;;;;;5092983;28;20192;-72
2023/02/01 09:03:16;;;;;;;0.70;0.70;;;-0.40;99.90;;;;;;5074667;28;20239;-72
2023/02/01 09:05:42;;;;;;;0.70;0.70;;;-0.50;99.90;;;;;;5092635;28;20228;-72
2023/02/01 09:08:08;;;;;;;1.20;1.17;;;-0.50;99.90;;;;;;5093227;28;20198;-71
2023/02/01 09:10:36;;;;;;;0.68;0.68;;;-0.50;99.90;;;;;;5074735;28;20196;-73
2023/02/01 09:13:02;;;;;;;0.70;0.70;;;-0.40;99.90;;;;;;5074885;28;20208;-72
2023/02/01 09:15:28;;;;;;;1.90;1.80;;;-0.50;99.90;;;;;;5093022;28;20280;-73
2023/02/01 09:17:54;;;;;;;0.60;0.60;;;-0.40;99.90;;;;;;5092640;28;20652;-72
2023/02/01 09:20:23;;;;;;;1.65;1.42;;;-0.40;99.90;;;;;;5092745;28;20191;-72
2023/02/01 09:22:50;;;;;;;0.60;0.60;;;-0.30;99.90;;;;;;5092731;28;20294;-72
2023/02/01 09:25:16;;;;;;;0.70;0.70;;;-0.40;99.90;;;;;;5075071;28;20283;-72
2023/02/01 09:27:42;;;;;;;1.55;0.93;;;-0.40;99.90;;;;;;5093301;28;20277;-72
2023/02/01 09:30:08;;;;;;;0.90;0.90;;;-0.40;99.90;;;;;;5097176;28;20639;-72
2023/02/01 09:32:35;;;;;;;0.80;0.80;;;-0.40;99.90;;;;;;5096921;28;20188;-73
2023/02/01 09:35:01;;;;;;;1.33;1.25;;;-0.40;99.90;;;;;;5096969;28;20200;-72
2023/02/01 09:37:27;;;;;;;0.65;0.65;;;-0.30;99.90;;;;;;5097010;28;20255;-72
2023/02/01 09:39:53;;;;;;;1.55;1.45;;;-0.30;99.90;;;;;;5079010;28;20372;-72
2023/02/01 09:42:27;;;;;;;2.05;1.90;;;-0.30;99.90;;;;;;5078722;28;20290;-72
2023/02/01 09:45:18;;;;;;;0.60;0.60;;;-0.20;99.90;;;;;;5096850;28;20203;-72
2023/02/01 09:47:54;;;;;;;1.25;1.20;;;-0.10;99.90;;;;;;5096501;28;20187;-73
2023/02/01 09:50:28;;;;;;;1.27;1.17;;;-0.10;99.90;;;;;;5095371;28;20215;-74
2023/02/01 09:53:12;;;;;;;3.45;3.15;;;0.00;99.90;;;;;;5096718;28;20686;-72
2023/02/01 09:55:50;;;;;;;1.23;1.17;;;0.00;99.90;;;;;;5096513;28;20203;-72
2023/02/01 09:58:33;;;;;;;1.08;1.02;;;0.00;99.90;;;;;;5096456;28;20227;-72
2023/02/01 10:01:02;;;;;;;1.35;1.25;;;0.00;99.90;;;;;;5097044;28;20194;-72
2023/02/01 10:03:33;;;;;;;0.70;0.70;;;0.00;99.90;;;;;;5096152;28;20666;-72
2023/02/01 10:06:33;;;;;;;0.65;0.65;;;-0.10;99.90;;;;;;5096236;28;20247;-71
2023/02/01 10:09:30;;;;;;;0.82;0.82;;;-0.10;99.90;;;;;;5078060;28;20200;-72
2023/02/01 10:12:30;;;;;;;0.60;0.60;;;-0.10;99.90;;;;;;5096490;28;20195;-72
2023/02/01 10:15:18;;;;;;;1.52;1.42;;;-0.10;99.90;;;;;;5096262;28;20188;-72
2023/02/01 10:17:50;;;;;;;1.13;1.13;;;-0.10;99.90;;;;;;5082576;28;20212;-71
2023/02/01 10:20:53;;;;;;;2.47;1.73;;;-0.10;99.90;;;;;;5096140;28;20193;-72
2023/02/01 10:23:37;;;;;;;1.33;1.23;;;-0.10;99.90;;;;;;5077782;28;20211;-72
2023/02/01 10:26:18;;;;;;;0.70;0.70;;;-0.10;99.90;;;;;;5096118;28;20192;-72
2023/02/01 10:28:52;;;;;;;0.95;0.95;;;-0.10;99.90;;;;;;5077583;28;20196;-72
2023/02/01 10:31:20;;;;;;;0.60;0.60;;;0.00;99.90;;;;;;5077877;28;20203;-72
2023/02/01 10:33:51;;;;;;;0.60;0.60;;;0.00;99.90;;;;;;5095862;28;20228;-73
2023/02/01 10:36:35;;;;;;;0.57;0.57;;;0.00;99.90;;;;;;5096220;28;20677;-73
2023/02/01 10:39:04;;;;;;;0.52;0.52;;;0.00;99.90;;;;;;5095375;28;20543;-72
2023/02/01 10:41:42;;;;;;;0.73;0.73;;;0.00;99.90;;;;;;5077145;28;20199;-72
2023/02/01 10:44:33;;;;;;;0.60;0.60;;;0.00;99.90;;;;;;5095445;28;20259;-73
2023/02/01 10:46:59;;;;;;;0.90;0.90;;;0.10;99.90;;;;;;5093398;28;20291;-72
2023/02/01 10:49:52;;;;;;;0.50;0.50;;;0.10;99.90;;;;;;5095498;28;20263;-72
2023/02/01 10:52:50;;;;;;;0.68;0.68;;;0.20;99.90;;;;;;5095417;28;20210;-74
2023/02/01 10:55:31;;;;;;;1.25;1.15;;;0.20;99.90;;;;;;5076442;28;20204;-72
2023/02/01 10:57:59;;;;;;;1.50;1.38;;;0.30;99.90;;;;;;5095466;28;20194;-72
2023/02/01 11:00:25;;;;;;;3.00;2.58;;;0.30;99.90;;;;;;5095875;28;20196;-76
2023/02/01 11:02:52;;;;;;;0.88;0.88;;;0.30;99.90;;;;;;5094900;28;20290;-76
2023/02/01 11:05:18;;;;;;;1.27;1.17;;;0.30;99.90;;;;;;5095093;28;20228;-75
2023/02/01 11:07:49;;;;;;;0.63;0.63;;;0.30;99.90;;;;;;5095248;28;20185;-75
2023/02/01 11:10:41;;;;;;;0.70;0.70;;;0.30;99.90;;;;;;5095467;28;20191;-73
2023/02/01 11:13:18;;;;;;;0.90;0.90;;;0.30;99.90;;;;;;5095273;28;20188;-73
2023/02/01 11:15:54;;;;;;;0.80;0.80;;;0.30;99.90;;;;;;5074798;28;20200;-73
2023/02/01 11:18:27;;;;;;;0.57;0.57;;;0.30;99.90;;;;;;5088835;28;20713;-73
2023/02/01 11:20:54;;;;;;;0.80;0.80;;;0.20;99.90;;;;;;5094892;28;20557;-72
2023/02/01 11:23:24;;;;;;;1.52;1.40;;;0.30;99.90;;;;;;5093102;28;20192;-73
2023/02/01 11:26:18;;;;;;;0.50;0.50;;;0.20;99.90;;;;;;5094771;28;20188;-72
2023/02/01 11:28:56;;;;;;;0.70;0.70;;;0.30;99.90;;;;;;5066314;28;20204;-72
2023/02/01 11:31:33;;;;;;;0.70;0.70;;;0.20;99.90;;;;;;5076419;28;20196;-74
2023/02/01 11:34:09;;;;;;;0.60;0.60;;;0.20;99.90;;;;;;5069888;28;20722;-72
2023/02/01 11:36:37;;;;;;;0.57;0.57;;;0.20;99.90;;;;;;5076240;28;20661;-74
2023/02/01 11:39:14;;;;;;;0.60;0.60;;;0.20;99.90;;;;;;5094626;28;20185;-72
2023/02/01 11:41:44;;;;;;;0.70;0.70;;;0.20;99.90;;;;;;5076356;28;20567;-72
2023/02/01 11:44:21;;;;;;;0.47;0.47;;;0.20;99.90;;;;;;5094429;28;20615;-72
2023/02/01 11:46:47;;;;;;;5.68;1.63;;;0.20;99.90;;;;;;5094549;28;20662;-74
2023/02/01 11:49:21;;;;;;;0.70;0.70;;;0.10;99.90;;;;;;5094561;28;20227;-72
2023/02/01 11:52:10;;;;;;;0.60;0.60;;;0.20;99.90;;;;;;5075121;28;20196;-72
2023/02/01 11:54:58;;;;;;;0.65;0.65;;;0.20;99.90;;;;;;5076389;28;20196;-72
2023/02/01 11:57:47;;;;;;;0.70;0.70;;;0.10;99.90;;;;;;5094008;28;20203;-73
2023/02/01 12:00:18;;;;;;;0.77;0.77;;;0.10;99.90;;;;;;5076280;28;20231;-73
2023/02/01 12:03:03;;;;;;;0.73;0.73;;;0.10;99.90;;;;;;5075686;28;20200;-72
2023/02/01 12:06:04;;;;;;;0.60;0.60;;;0.10;99.90;;;;;;5094145;28;20353;-72
2023/02/01 12:08:54;;;;;;;0.60;0.60;;;0.00;99.90;;;;;;5075614;28;20270;-72
2023/02/01 12:12:18;;;;;;;0.60;0.60;;;-0.10;99.90;;;;;;5093713;28;20193;-73
2023/02/01 12:15:15;;;;;;;0.63;0.63;;;0.00;99.90;;;;;;4991166;28;20204;-72
2023/02/01 12:17:56;;;;;;;0.60;0.60;;;0.00;99.90;;;;;;4983098;28;20215;-72
2023/02/01 12:20:27;;;;;;;1.30;1.20;;;0.00;99.90;;;;;;4972572;28;20208;-72
2023/02/01 12:23:00;;;;;;;0.60;0.60;;;0.10;99.90;;;;;;4972669;28;20742;-72
2023/02/01 12:25:59;;;;;;;0.60;0.60;;;0.10;99.90;;;;;;4972637;28;20212;-72
2023/02/01 12:28:34;;;;;;;0.55;0.55;;;0.10;99.90;;;;;;4972661;28;20196;-72
2023/02/01 12:31:23;;;;;;;1.08;1.05;;;0.10;99.90;;;;;;4972740;28;20286;-72
2023/02/01 12:34:16;;;;;;;0.60;0.60;;;0.10;99.90;;;;;;4972496;28;20196;-72
2023/02/01 12:37:14;;;;;;;0.60;0.60;;;0.10;99.90;;;;;;4974392;28;20204;-71
2023/02/01 12:39:59;;;;;;;0.70;0.70;;;0.00;99.90;;;;;;4991649;28;20219;-72
2023/02/01 12:42:43;;;;;;;0.70;0.70;;;-0.10;99.90;;;;;;4991662;28;20222;-71
2023/02/01 12:45:29;;;;;;;0.60;0.60;;;-0.20;99.90;;;;;;5024394;28;20249;-73
2023/02/01 12:48:03;;;;;;;0.52;0.52;;;-0.20;99.90;;;;;;5069638;28;20200;-72
2023/02/01 12:50:39;;;;;;;0.60;0.60;;;-0.30;99.90;;;;;;5075026;28;20196;-72
2023/02/01 12:53:24;;;;;;;0.68;0.68;;;-0.40;99.90;;;;;;5093289;28;20196;-72
2023/02/01 12:55:54;;;;;;;0.70;0.70;;;-0.50;99.90;;;;;;5093205;28;20224;-71
2023/02/01 12:58:38;;;;;;;0.68;0.68;;;-0.50;99.90;;;;;;5093077;28;20207;-72
2023/02/01 13:01:21;;;;;;;0.70;0.70;;;-0.50;99.90;;;;;;5093352;28;20200;-71
2023/02/01 13:04:14;;;;;;;0.70;0.70;;;-0.50;99.90;;;;;;5074477;28;20632;-72
2023/02/01 13:06:48;;;;;;;0.52;0.52;;;-0.50;99.90;;;;;;5092493;28;20288;-71
2023/02/01 13:09:23;;;;;;;0.80;0.80;;;-0.60;99.90;;;;;;5093406;28;20583;-72
2023/02/01 13:11:51;;;;;;;0.77;0.77;;;-0.60;99.90;;;;;;5074908;28;20594;-72
2023/02/01 13:14:25;;;;;;;0.63;0.63;;;-0.60;99.90;;;;;;5092883;28;20195;-72
2023/02/01 13:17:01;;;;;;;0.60;0.60;;;-0.60;99.90;;;;;;5072618;28;20296;-72
2023/02/01 13:19:46;;;;;;;0.70;0.70;;;-0.60;99.90;;;;;;5072696;28;20188;-72
2023/02/01 13:22:35;;;;;;;0.70;0.70;;;-0.60;99.90;;;;;;5072890;28;20210;-71
2023/02/01 13:25:18;;;;;;;0.60;0.60;;;-0.50;99.90;;;;;;5072026;28;20647;-71
2023/02/01 13:27:44;;;;;;;0.63;0.63;;;-0.60;99.90;;;;;;5072615;28;20246;-71
2023/02/01 13:30:20;;;;;;;0.50;0.50;;;-0.60;99.90;;;;;;5072882;28;20193;-72
2023/02/01 13:32:58;;;;;;;0.60;0.60;;;-0.60;99.90;;;;;;5073053;28;20567;-72
2023/02/01 13:35:38;;;;;;;0.50;0.50;;;-0.60;99.90;;;;;;5092695;28;20196;-72